If you wish to contribute or participate in the discussions about articles you are invited to join SKYbrary as a registered user

 Actions

Shahrekord Airport

From SKYbrary Wiki

OIFS
Airport
ICAO: OIFS – IATA: CQD
Summary
Name Shahrekord Airport
Region Middle East
Territory Iran IR.gif
Location Shahrekord, Chaharmahal and Bakhtiari Province
Serving Shahrekord
Elevation 2,049.17 m
6,723 ft2,049.17 m
Coordinates 32° 17' 40.58" N, 50° 50' 15.85" E
Runways
Designator Length Width Surface ROPS
14/32 3298 m10,820.21 ft
45 m147.638 ft
ASP /


METAR
Observation OIFS 111000Z 17006KT 9999 FEW040 SCT190 17/M02 Q1020
Station Shahre-Kord
Date/Time 11 April 2019 10:00:00
Wind direction 170°
Wind speed 06 kts
Lowest cloud amount few clouds
Temperature 17°C
Dew point
Humidity 27%
QNH 1020 hPa
Weather condition n/a

Airport serving Shahr-e Kord, Iran.

Climatology

Cold Semi-arid climate (Köppen climate classification BSk).

Maps

Terrain

Loading map...

Airport Layout

Loading map...


Accidents & Serious Incidents at or in vicinity of OIFS

None on SKYbrary